METAR

METAR LDZA 192030Z 27008KT 240V320 9999 -DZ OVC005 02/01 Q1015 REDZ TEMPO 4000 -RASN SCT005 OVC035 =
METAR LDSP 192030Z 01003KT 340V070 9999 SCT020 BKN055 12/08 Q1010 TEMPO 4000 RA=
METAR LDDU 192030Z 18012KT 130V230 9999 FEW018 BKN042 12/09 Q1012 TEMPO 4000 RA BKN012 =
METAR LDZD 192030Z 08009KT 020V150 9999 SCT020 BKN035 08/04 Q1009 TEMPO 05015G25KT 3000 TSRA FEW025CB BKN030 =
METAR LDPL 192030Z 08018KT 9999 FEW014 BKN028 07/04 Q1011 NOSIG=
METAR LDOS 192030Z 33007KT 290V350 9999 FEW010 SCT037 05/01 Q1014=
METAR LDRI 192030Z 13007KT 050V170 9999 -RA FEW020 SCT040 BKN052
07/02 Q1013=

TAF

TAF LDZA 191725Z 1918/2018 VRB02KT 9999 SCT030
                 TX05/2013Z TNM03/2002Z
    PROB40 TEMPO 1918/1922 4000 -RASN BKN012
           BECMG 1922/2001 0100 FZFG VV001
           BECMG 2009/2012 CAVOK=
TAF LDSP 191725Z 1918/2018 09007KT 9999 FEW020 BKN030
                 TX12/1918Z TN05/2006Z
           TEMPO 1920/2003 4000 RA
    PROB40 TEMPO 1922/2002 SHRA FEW020TCU BKN030
           TEMPO 2002/2005 05015KT
           BECMG 2009/2011 32012KT
           BECMG 2015/2017 VRB02KT=
TAF LDDU 191725Z 1918/2018 11014KT 9999 FEW020 BKN030
                 TX12/2002Z TN07/2017Z
           TEMPO 1918/2012 4000 RA BKN012
    PROB40 TEMPO 1922/2009 3000 SHRA BKN013 FEW017TCU
    PROB30 TEMPO 2000/2009 02020G30KT 3000 TSRA FEW015CB BKN020
           BECMG 2000/2002 20008KT
           BECMG 2008/2010 31010KT=
TAF LDZD 191725Z 1918/2018 09006KT 9999 FEW020 BKN040
                 TX11/2013Z TN02/2006Z
           TEMPO 1918/2000 5000 RA
           BECMG 1920/1922 06015KT
    PROB30 TEMPO 1920/1923 04015G25KT 3000 TSRA FEW025CB BKN027
           BECMG 2002/2004 07005KT
           BECMG 2010/2012 32008KT=
TAF LDPL 191725Z 1918/2018 VRB02KT CAVOK
                 TX10/2013Z TN03/2004Z
           BECMG 1920/1922 06014KT
           BECMG 2002/2004 06005KT
          PROB30 2011/2015 30008KT=
TAF LDOS 191725Z 1918/2018 01012KT 9999 SCT030
                 TX05/2013Z TNM01/2004Z
    PROB30 TEMPO 1918/1922 4000 -RASN BKN012
           BECMG 1920/1922 23006KT
          PROB40 2003/2011 0100 FZFG VV001=
TAF LDRI 191725Z 1918/2018 VRB02KT 9999 SCT030
                 TX09/2013Z TN03/2004Z
    PROB40 TEMPO 1918/1922 TSRA FEW010 FEW025CB BKN030
           BECMG 1920/1922 06015KT
           BECMG 2002/2004 VRB02KT=

SIGMET

LDZO SIGMET 3 VALID 191900/192100 LDZA-
LDZO ZAGREB FIR EMBD TS OBS WI N4553 E01516 - N4515 E01634 - N4342
E01523 - N4359 E01420 - N4525 E01347 - N4553 E01516 TOP FL240 STNR
NC=

AIRMET

LDZO AIRMET 14 VALID 191700/192100 LDZA-
LDZO ZAGREB FIR MT OBSC FCST WI N4641 E01655 - N4508 E01817 - N4224
E01829 - N4254 E01647 - N4528 E01333 - N4641 E01655 ABV 2000FT STNR
NC=
LDZO AIRMET 16 VALID 191700/192100 LDZA-
LDZO ZAGREB FIR MOD ICE FCST WI N4630 E01623 - N4553 E01851 - N4458
E01940 - N4345 E01647 - N4526 E01401 - N4630 E01623 ABV 2000FT STNR
NC=
LDZO AIRMET 18 VALID 191936/192100 LDZA-
LDZO ZAGREB FIR MOD ICE FCST S OF LINE N4434 E01319 - N4526 E01400 -
N4340 E01656 ABV 5000FT MOV SE 5KT NC=

Remark

Ukoliko se brzina i smjer vjetra ne mogu odrediti zbog privremenog kvara sustava/indikatora,
informacija o vjetru u METAR izvješću bit će prikazana kao "/////KT".

 

Disclaimer

 

In case of temporary system/sensor failure, wind speed and direction data will be represented as "/////KT" in METAR report.

 

         

      Politika MET podataka